createdAt,value
2017-08-20T00:01:37.915Z,25.50
2017-08-20T00:04:05.402Z,26.00
2017-08-20T00:06:32.918Z,25.80
2017-08-20T00:09:00.403Z,26.10
2017-08-20T00:11:27.884Z,25.60
2017-08-20T00:13:55.403Z,25.20
2017-08-20T00:16:22.899Z,25.10
2017-08-20T00:18:50.374Z,25.20
2017-08-20T00:21:18.658Z,25.90
2017-08-20T00:23:46.138Z,25.80
2017-08-20T00:26:13.619Z,25.60
2017-08-20T00:28:41.135Z,26.00
2017-08-20T00:31:09.380Z,25.00
2017-08-20T00:33:36.867Z,25.00
2017-08-20T00:36:04.393Z,25.20
2017-08-20T00:38:31.882Z,25.10
2017-08-20T00:40:59.361Z,25.00
2017-08-20T00:43:26.871Z,25.10
2017-08-20T00:45:54.351Z,25.40
2017-08-20T00:48:21.842Z,25.20
2017-08-20T00:50:49.343Z,25.10
2017-08-20T00:53:16.828Z,25.40
2017-08-20T00:55:44.317Z,24.80
2017-08-20T00:58:11.825Z,25.10
2017-08-20T01:00:39.312Z,25.10
2017-08-20T01:03:07.572Z,25.10
2017-08-20T01:05:35.075Z,25.00
2017-08-20T01:08:02.568Z,24.80
2017-08-20T01:10:30.050Z,24.70
2017-08-20T01:12:57.554Z,25.00
2017-08-20T01:15:25.038Z,25.10
2017-08-20T01:17:52.518Z,24.90
2017-08-20T01:20:20.034Z,24.90
2017-08-20T01:22:48.246Z,24.60
2017-08-20T01:25:15.739Z,24.40
2017-08-20T01:27:44.016Z,24.10
2017-08-20T01:30:12.260Z,24.20
2017-08-20T01:32:39.797Z,24.10
2017-08-20T01:35:07.307Z,24.30
2017-08-20T01:37:34.798Z,24.10
2017-08-20T01:40:02.273Z,24.00
2017-08-20T01:42:29.802Z,23.90
2017-08-20T01:44:57.278Z,23.90
2017-08-20T01:47:24.762Z,23.90
2017-08-20T01:49:52.281Z,24.10
2017-08-20T01:52:19.767Z,24.20
2017-08-20T01:54:47.244Z,24.30
2017-08-20T01:57:14.763Z,24.50
2017-08-20T01:59:42.236Z,24.50
2017-08-20T02:02:09.719Z,24.30
2017-08-20T02:04:37.226Z,24.50
2017-08-20T02:07:04.719Z,24.40
2017-08-20T02:09:32.415Z,25.00
2017-08-20T02:11:59.926Z,25.20
2017-08-20T02:14:27.422Z,24.90
2017-08-20T02:16:55.084Z,24.50
2017-08-20T02:19:22.606Z,24.50
2017-08-20T02:21:50.077Z,24.50
2017-08-20T02:24:17.557Z,24.50
2017-08-20T02:26:45.067Z,24.40
2017-08-20T02:29:13.318Z,24.70
2017-08-20T02:31:40.793Z,24.70
2017-08-20T02:34:08.298Z,24.40
2017-08-20T02:36:35.794Z,24.50
2017-08-20T02:39:03.278Z,24.30
2017-08-20T02:41:30.793Z,24.40
2017-08-20T02:43:58.269Z,24.60
2017-08-20T02:46:25.755Z,25.10
2017-08-20T02:48:54.034Z,24.80
2017-08-20T02:51:21.524Z,24.80
2017-08-20T02:53:48.998Z,24.40
2017-08-20T02:56:16.549Z,24.40
2017-08-20T02:58:44.040Z,24.90
2017-08-20T03:01:11.526Z,24.50
2017-08-20T03:03:39.806Z,24.10
2017-08-20T03:06:08.058Z,24.50
2017-08-20T03:08:35.542Z,24.40
2017-08-20T03:11:03.823Z,24.30
2017-08-20T03:13:31.312Z,24.20
2017-08-20T03:15:58.936Z,24.10
2017-08-20T03:18:27.218Z,23.90
2017-08-20T03:20:55.456Z,23.90
2017-08-20T03:23:22.949Z,23.80
2017-08-20T03:25:51.234Z,23.80
2017-08-20T03:28:19.490Z,23.80
2017-08-20T03:30:46.971Z,23.70
2017-08-20T03:33:15.105Z,23.70
2017-08-20T03:35:42.593Z,24.00
2017-08-20T03:38:10.842Z,24.40
2017-08-20T03:40:38.353Z,24.40
2017-08-20T03:43:05.841Z,24.30
2017-08-20T03:45:33.322Z,24.30
2017-08-20T03:48:00.835Z,24.20
2017-08-20T03:50:28.328Z,24.30
2017-08-20T03:52:55.825Z,24.90
2017-08-20T03:55:24.093Z,24.40
2017-08-20T03:57:51.570Z,24.40
2017-08-20T04:00:19.828Z,24.60
2017-08-20T04:02:47.339Z,24.50
2017-08-20T04:05:14.831Z,24.30
2017-08-20T04:07:42.317Z,24.10
2017-08-20T04:10:10.581Z,23.90
2017-08-20T04:12:38.075Z,23.80
2017-08-20T04:15:05.566Z,23.60
2017-08-20T04:17:33.067Z,23.50
2017-08-20T04:20:00.569Z,23.50
2017-08-20T04:22:28.060Z,23.50
2017-08-20T04:24:55.583Z,23.50
2017-08-20T04:27:23.089Z,23.50
2017-08-20T04:29:50.569Z,23.50
2017-08-20T04:32:18.847Z,23.50
2017-08-20T04:34:47.089Z,23.40
2017-08-20T04:37:14.562Z,23.40
2017-08-20T04:39:42.064Z,23.40
2017-08-20T04:42:09.551Z,23.40
2017-08-20T04:44:37.038Z,23.30
2017-08-20T04:47:04.547Z,23.20
2017-08-20T04:49:32.055Z,23.10
2017-08-20T04:51:59.549Z,23.10
2017-08-20T04:54:27.066Z,23.00
2017-08-20T04:56:54.551Z,23.00
2017-08-20T04:59:22.793Z,23.40
2017-08-20T05:01:50.299Z,23.40
2017-08-20T05:04:18.551Z,23.50
2017-08-20T05:06:46.981Z,23.40
2017-08-20T05:09:14.498Z,23.50
2017-08-20T05:11:41.982Z,23.20
2017-08-20T05:14:09.461Z,23.00
2017-08-20T05:16:36.961Z,22.90
2017-08-20T05:19:04.455Z,22.80
2017-08-20T05:21:32.702Z,23.00
2017-08-20T05:24:00.326Z,22.90
2017-08-20T05:26:27.804Z,23.20
2017-08-20T05:28:55.302Z,23.30
2017-08-20T05:31:23.579Z,23.20
2017-08-20T05:33:51.834Z,23.10
2017-08-20T05:36:19.314Z,23.10
2017-08-20T05:38:47.592Z,23.80
2017-08-20T05:41:15.842Z,23.40
2017-08-20T05:43:43.329Z,23.30
2017-08-20T05:46:11.614Z,23.60
2017-08-20T05:48:39.093Z,23.60
2017-08-20T05:51:06.583Z,23.60
2017-08-20T05:53:34.090Z,24.00
2017-08-20T05:56:02.343Z,23.90
2017-08-20T05:58:29.840Z,23.90
2017-08-20T06:00:57.336Z,23.40
2017-08-20T06:03:24.817Z,23.50
2017-08-20T06:05:52.298Z,23.80
2017-08-20T06:08:20.575Z,24.20
2017-08-20T06:10:48.831Z,24.60
2017-08-20T06:13:16.314Z,24.50
2017-08-20T06:15:44.586Z,24.30
2017-08-20T06:18:12.833Z,24.40
2017-08-20T06:20:40.305Z,24.30
2017-08-20T06:23:07.809Z,24.10
2017-08-20T06:25:35.299Z,24.30
2017-08-20T06:28:02.777Z,24.20
2017-08-20T06:30:30.292Z,23.80
2017-08-20T06:32:57.783Z,24.60
2017-08-20T06:35:25.261Z,24.40
2017-08-20T06:37:52.775Z,23.90
2017-08-20T06:40:20.249Z,24.10
2017-08-20T06:42:47.726Z,23.80
2017-08-20T06:45:15.241Z,23.60
2017-08-20T06:47:42.740Z,23.90
2017-08-20T06:50:10.229Z,24.50
2017-08-20T06:52:38.556Z,24.50
2017-08-20T06:55:06.047Z,24.50
2017-08-20T06:57:33.538Z,24.50
2017-08-20T07:00:01.071Z,24.50
2017-08-20T07:02:28.553Z,24.90
2017-08-20T07:04:56.047Z,24.00
2017-08-20T07:07:23.546Z,24.00
2017-08-20T07:09:51.043Z,24.50
2017-08-20T07:12:18.522Z,24.50
2017-08-20T07:14:46.030Z,24.30
2017-08-20T07:17:13.521Z,23.80
2017-08-20T07:19:41.025Z,24.20
2017-08-20T07:22:08.539Z,24.30
2017-08-20T07:24:36.036Z,24.10
2017-08-20T07:27:03.514Z,23.60
2017-08-20T07:29:31.039Z,23.80
2017-08-20T07:31:58.521Z,23.80
2017-08-20T07:34:25.997Z,23.70
2017-08-20T07:36:53.502Z,24.60
2017-08-20T07:39:20.994Z,24.60
2017-08-20T07:41:48.497Z,24.10
2017-08-20T07:44:16.784Z,24.00
2017-08-20T07:46:44.268Z,23.90
2017-08-20T07:49:11.746Z,24.80
2017-08-20T07:51:39.257Z,23.90
2017-08-20T07:54:07.493Z,23.80
2017-08-20T07:56:34.979Z,23.80
2017-08-20T07:59:03.261Z,24.30
2017-08-20T08:01:31.510Z,24.10
2017-08-20T08:03:58.999Z,24.10
2017-08-20T08:06:26.509Z,24.40
2017-08-20T08:08:53.996Z,24.30
2017-08-20T08:11:21.474Z,24.60
2017-08-20T08:13:49.761Z,24.50
2017-08-20T08:16:17.235Z,24.40
2017-08-20T08:18:44.713Z,24.60
2017-08-20T08:21:12.232Z,24.70
2017-08-20T08:23:40.491Z,24.50
2017-08-20T08:26:07.980Z,24.50
2017-08-20T08:28:35.493Z,24.50
2017-08-20T08:31:02.966Z,24.80
2017-08-20T08:33:30.439Z,24.70
2017-08-20T08:35:58.722Z,24.70
2017-08-20T08:38:26.975Z,24.80
2017-08-20T08:40:54.444Z,24.80
2017-08-20T08:43:21.952Z,25.00
2017-08-20T08:45:49.438Z,25.30
2017-08-20T08:48:16.910Z,24.70
2017-08-20T08:50:44.417Z,24.70
2017-08-20T08:53:11.898Z,24.90
2017-08-20T08:55:39.373Z,24.10
2017-08-20T08:58:06.887Z,24.00
2017-08-20T09:00:34.379Z,24.70
2017-08-20T09:03:01.862Z,25.00
2017-08-20T09:05:29.357Z,24.60
2017-08-20T09:07:56.836Z,24.30
2017-08-20T09:10:24.326Z,25.00
2017-08-20T09:12:51.824Z,25.20
2017-08-20T09:15:19.308Z,25.70
2017-08-20T09:17:46.790Z,25.30
2017-08-20T09:20:14.305Z,24.80
2017-08-20T09:22:41.780Z,24.80
2017-08-20T09:25:09.259Z,25.00
2017-08-20T09:27:36.756Z,24.80
2017-08-20T09:30:04.248Z,24.70
2017-08-20T09:32:31.726Z,25.00
2017-08-20T09:34:59.239Z,25.00
2017-08-20T09:37:26.711Z,24.70
2017-08-20T09:39:54.960Z,24.80
2017-08-20T09:42:22.467Z,24.70
2017-08-20T09:44:49.937Z,24.90
2017-08-20T09:47:17.414Z,25.10
2017-08-20T09:49:44.931Z,25.50
2017-08-20T09:52:12.423Z,25.60
2017-08-20T09:54:39.904Z,25.50
2017-08-20T09:57:07.414Z,25.60
2017-08-20T09:59:34.907Z,25.60
2017-08-20T10:02:02.385Z,25.40
2017-08-20T10:04:29.885Z,25.50
2017-08-20T10:06:57.373Z,26.10
2017-08-20T10:09:24.867Z,26.50
2017-08-20T10:11:52.374Z,26.80
2017-08-20T10:14:19.864Z,27.00
2017-08-20T10:16:47.355Z,27.10
2017-08-20T10:19:14.864Z,27.20
2017-08-20T10:21:42.355Z,27.20
2017-08-20T10:24:09.839Z,27.30
2017-08-20T10:26:37.343Z,27.40
2017-08-20T10:29:04.823Z,27.60
2017-08-20T10:31:32.306Z,27.70
2017-08-20T10:33:59.824Z,27.50
2017-08-20T10:36:27.315Z,27.50
2017-08-20T10:38:54.799Z,27.40
2017-08-20T10:41:22.327Z,27.40
2017-08-20T10:43:49.811Z,27.50
2017-08-20T10:46:17.286Z,27.50
2017-08-20T10:48:45.555Z,27.40
2017-08-20T10:51:13.054Z,27.40
2017-08-20T10:53:40.546Z,27.50
2017-08-20T10:56:08.041Z,27.50
2017-08-20T10:58:36.286Z,27.40
2017-08-20T11:01:03.762Z,27.40
2017-08-20T11:03:31.287Z,27.40
2017-08-20T11:05:58.793Z,27.30
2017-08-20T11:08:27.048Z,27.60
2017-08-20T11:10:54.564Z,27.50
2017-08-20T11:13:22.050Z,27.40
2017-08-20T11:15:49.529Z,27.30
2017-08-20T11:18:17.016Z,27.50
2017-08-20T11:20:44.506Z,27.50
2017-08-20T11:23:11.991Z,27.50
2017-08-20T11:25:39.504Z,27.50
2017-08-20T11:28:07.000Z,27.30
2017-08-20T11:30:34.492Z,27.30
2017-08-20T11:33:02.006Z,27.40
2017-08-20T11:35:29.493Z,27.30
2017-08-20T11:37:56.983Z,27.20
2017-08-20T11:40:24.510Z,27.30
2017-08-20T11:42:51.981Z,27.50
2017-08-20T11:45:19.470Z,27.40
2017-08-20T11:47:46.983Z,27.40
2017-08-20T11:50:14.479Z,27.50
2017-08-20T11:52:41.971Z,27.70
2017-08-20T11:55:09.487Z,27.70
2017-08-20T11:57:37.745Z,27.50
2017-08-20T12:00:05.218Z,27.50
2017-08-20T12:02:33.482Z,27.30
2017-08-20T12:05:00.969Z,27.30
2017-08-20T12:07:29.222Z,27.30
2017-08-20T12:09:56.729Z,27.20
2017-08-20T12:12:24.226Z,27.40
2017-08-20T12:14:51.721Z,27.40
2017-08-20T12:17:20.003Z,27.40
2017-08-20T12:19:48.250Z,27.40
2017-08-20T12:22:15.729Z,27.40
2017-08-20T12:24:43.238Z,27.50
2017-08-20T12:27:10.735Z,27.60
2017-08-20T12:29:38.214Z,27.50
2017-08-20T12:32:06.495Z,27.50
2017-08-20T12:34:34.742Z,27.40
2017-08-20T12:37:02.218Z,27.40
2017-08-20T12:39:29.727Z,27.30
2017-08-20T12:41:57.206Z,27.20
2017-08-20T12:44:24.693Z,27.30
2017-08-20T12:46:52.198Z,27.40
2017-08-20T12:49:19.681Z,27.30
2017-08-20T12:51:47.166Z,27.50
2017-08-20T12:54:14.683Z,27.40
2017-08-20T12:56:42.167Z,27.50
2017-08-20T12:59:09.650Z,27.60
2017-08-20T13:01:37.157Z,27.50
2017-08-20T13:04:04.640Z,27.60
2017-08-20T13:06:32.118Z,27.60
2017-08-20T13:09:00.394Z,27.60
2017-08-20T13:11:27.900Z,27.60
2017-08-20T13:13:55.396Z,27.70
2017-08-20T13:16:22.897Z,27.80
2017-08-20T13:18:50.377Z,27.70
2017-08-20T13:21:17.871Z,27.80
2017-08-20T13:23:45.368Z,28.00
2017-08-20T13:26:13.624Z,27.70
2017-08-20T13:28:41.105Z,27.70
2017-08-20T13:31:08.613Z,27.60
2017-08-20T13:33:36.162Z,27.60
2017-08-20T13:36:03.647Z,27.80
2017-08-20T13:38:31.162Z,27.80
2017-08-20T13:40:58.643Z,27.90
2017-08-20T13:43:26.126Z,28.00
2017-08-20T13:45:53.626Z,28.00
2017-08-20T13:48:21.099Z,28.00
2017-08-20T13:50:48.585Z,28.00
2017-08-20T13:53:16.124Z,27.80
2017-08-20T13:55:43.631Z,28.00
2017-08-20T13:58:11.105Z,27.90
2017-08-20T14:00:38.617Z,28.00
2017-08-20T14:03:06.099Z,27.80
2017-08-20T14:05:33.580Z,27.70
2017-08-20T14:08:01.095Z,27.70
2017-08-20T14:10:28.569Z,27.80
2017-08-20T14:12:56.052Z,27.80
2017-08-20T14:15:24.332Z,27.90
2017-08-20T14:17:51.831Z,27.90
2017-08-20T14:20:19.326Z,27.90
2017-08-20T14:22:46.838Z,27.90
2017-08-20T14:25:14.327Z,28.00
2017-08-20T14:27:41.827Z,27.90
2017-08-20T14:30:09.343Z,27.90
2017-08-20T14:32:36.823Z,27.90
2017-08-20T14:35:04.324Z,27.80
2017-08-20T14:37:31.825Z,27.90
2017-08-20T14:39:59.300Z,27.90
2017-08-20T14:42:26.776Z,27.80
2017-08-20T14:44:54.315Z,27.80
2017-08-20T14:47:21.819Z,27.80
2017-08-20T14:49:49.315Z,28.00
2017-08-20T14:52:16.827Z,28.10
2017-08-20T14:54:45.078Z,28.10
2017-08-20T14:57:12.562Z,28.10
2017-08-20T14:59:40.834Z,28.00
2017-08-20T15:02:08.325Z,28.00
2017-08-20T15:04:35.806Z,28.00
2017-08-20T15:07:03.314Z,27.90
2017-08-20T15:09:31.575Z,28.00
2017-08-20T15:11:59.059Z,28.00
2017-08-20T15:14:27.328Z,28.10
2017-08-20T15:16:55.591Z,28.20
2017-08-20T15:19:23.075Z,28.10
2017-08-20T15:21:50.587Z,28.10
2017-08-20T15:24:18.074Z,27.90
2017-08-20T15:26:46.310Z,28.00
2017-08-20T15:29:13.829Z,28.00
2017-08-20T15:31:41.323Z,28.10
2017-08-20T15:34:08.810Z,27.90
2017-08-20T15:36:36.308Z,28.00
2017-08-20T15:39:03.782Z,28.10
2017-08-20T15:41:31.266Z,28.10
2017-08-20T15:43:58.774Z,28.10
2017-08-20T15:46:27.023Z,28.00
2017-08-20T15:48:54.519Z,28.00
2017-08-20T15:51:22.030Z,28.00
2017-08-20T15:53:49.515Z,27.90
2017-08-20T15:56:16.992Z,27.90
2017-08-20T15:58:45.257Z,28.10
2017-08-20T16:01:13.497Z,28.10
2017-08-20T16:03:40.978Z,28.00
2017-08-20T16:06:08.481Z,27.90
2017-08-20T16:08:35.957Z,27.90
2017-08-20T16:11:03.451Z,27.90
2017-08-20T16:13:30.947Z,27.90
2017-08-20T16:15:58.438Z,27.70
2017-08-20T16:18:25.940Z,27.80
2017-08-20T16:20:54.224Z,27.80
2017-08-20T16:23:22.478Z,27.80
2017-08-20T16:25:49.958Z,27.80
2017-08-20T16:28:17.563Z,27.80
2017-08-20T16:30:45.066Z,27.90
2017-08-20T16:33:12.551Z,27.80
2017-08-20T16:35:40.079Z,27.80
2017-08-20T16:38:07.571Z,27.60
2017-08-20T16:40:35.822Z,27.60
2017-08-20T16:43:03.336Z,27.60
2017-08-20T16:45:30.823Z,27.70
2017-08-20T16:47:58.303Z,27.60
2017-08-20T16:50:25.798Z,27.60
2017-08-20T16:52:53.281Z,27.50
2017-08-20T16:55:20.753Z,27.60
2017-08-20T16:57:48.279Z,27.50
2017-08-20T17:00:15.767Z,27.40
2017-08-20T17:02:43.251Z,27.40
2017-08-20T17:05:10.742Z,27.40
2017-08-20T17:07:38.234Z,27.40
2017-08-20T17:10:05.742Z,27.40
2017-08-20T17:12:33.996Z,27.30
2017-08-20T17:15:01.478Z,27.20
2017-08-20T17:17:28.959Z,27.30
2017-08-20T17:19:56.480Z,27.30
2017-08-20T17:22:23.963Z,27.30
2017-08-20T17:24:51.453Z,27.30
2017-08-20T17:27:18.974Z,27.30
2017-08-20T17:29:46.459Z,27.30
2017-08-20T17:32:13.942Z,27.20
2017-08-20T17:34:41.458Z,27.20
2017-08-20T17:37:08.952Z,27.20
2017-08-20T17:39:36.459Z,27.10
2017-08-20T17:42:03.984Z,27.10
2017-08-20T17:44:31.459Z,27.10
2017-08-20T17:46:58.942Z,27.10
2017-08-20T17:49:27.214Z,27.10
2017-08-20T17:51:54.710Z,27.10
2017-08-20T17:54:22.188Z,27.10
2017-08-20T17:56:49.713Z,27.10
2017-08-20T17:59:17.962Z,27.00
2017-08-20T18:01:45.447Z,27.00
2017-08-20T18:04:13.728Z,27.00
2017-08-20T18:06:41.977Z,26.90
2017-08-20T18:09:09.476Z,26.80
2017-08-20T18:11:36.981Z,26.80
2017-08-20T18:14:04.456Z,26.80
2017-08-20T18:16:31.943Z,26.80
2017-08-20T18:18:59.462Z,26.80
2017-08-20T18:21:26.952Z,26.80
2017-08-20T18:23:54.438Z,26.70
2017-08-20T18:26:21.958Z,26.70
2017-08-20T18:28:49.449Z,26.80
2017-08-20T18:31:16.925Z,26.70
2017-08-20T18:33:44.426Z,26.70
2017-08-20T18:36:11.905Z,26.80
2017-08-20T18:38:40.163Z,26.50
2017-08-20T18:41:07.785Z,26.40
2017-08-20T18:43:35.257Z,26.60
2017-08-20T18:46:02.749Z,26.50
2017-08-20T18:48:30.262Z,26.60
2017-08-20T18:50:57.743Z,26.60
2017-08-20T18:53:25.225Z,26.50
2017-08-20T18:55:52.736Z,26.40
2017-08-20T18:58:20.220Z,26.40
2017-08-20T19:00:47.711Z,26.30
2017-08-20T19:03:15.223Z,26.20
2017-08-20T19:05:42.702Z,26.20
2017-08-20T19:08:10.189Z,26.20
2017-08-20T19:10:38.467Z,26.20
2017-08-20T19:13:05.961Z,26.10
2017-08-20T19:15:33.437Z,26.20
2017-08-20T19:18:00.944Z,26.10
2017-08-20T19:20:28.424Z,26.00
2017-08-20T19:22:55.907Z,25.90
2017-08-20T19:25:23.401Z,25.90
2017-08-20T19:27:50.875Z,26.00
2017-08-20T19:30:18.354Z,26.00
2017-08-20T19:32:45.874Z,26.20
2017-08-20T19:35:13.383Z,26.10
2017-08-20T19:37:40.871Z,26.10
2017-08-20T19:40:08.369Z,26.10
2017-08-20T19:42:35.841Z,26.00
2017-08-20T19:45:03.329Z,26.10
2017-08-20T19:47:30.837Z,26.00
2017-08-20T19:49:58.318Z,25.90
2017-08-20T19:52:25.805Z,26.00
2017-08-20T19:54:53.332Z,25.90
2017-08-20T19:57:20.814Z,25.90
2017-08-20T19:59:48.307Z,25.90
2017-08-20T20:02:15.806Z,25.90
2017-08-20T20:04:43.292Z,25.90
2017-08-20T20:07:10.783Z,25.70
2017-08-20T20:09:38.294Z,25.80
2017-08-20T20:12:05.768Z,25.90
2017-08-20T20:14:33.258Z,25.80
2017-08-20T20:17:00.762Z,25.80
2017-08-20T20:19:28.246Z,25.90
2017-08-20T20:21:55.783Z,25.80
2017-08-20T20:24:23.311Z,25.60
2017-08-20T20:26:50.835Z,25.60
2017-08-20T20:29:18.315Z,25.50
2017-08-20T20:31:45.817Z,25.20
2017-08-20T20:34:14.060Z,24.80
2017-08-20T20:36:41.533Z,24.80
2017-08-20T20:39:09.040Z,24.70
2017-08-20T20:41:36.530Z,24.70
2017-08-20T20:44:04.013Z,24.70
2017-08-20T20:46:31.524Z,24.60
2017-08-20T20:48:59.014Z,24.50
2017-08-20T20:51:26.508Z,24.40
2017-08-20T20:53:54.782Z,24.30
2017-08-20T20:56:23.040Z,24.40
2017-08-20T20:58:50.518Z,24.30
2017-08-20T21:01:18.030Z,24.40
2017-08-20T21:03:45.520Z,24.30
2017-08-20T21:06:13.026Z,24.20
2017-08-20T21:08:40.530Z,24.20
2017-08-20T21:11:08.010Z,24.30
2017-08-20T21:13:36.271Z,24.40
2017-08-20T21:16:03.801Z,24.30
2017-08-20T21:18:31.278Z,24.10
2017-08-20T21:20:58.761Z,24.10
2017-08-20T21:23:26.272Z,23.90
2017-08-20T21:25:53.763Z,23.80
2017-08-20T21:28:21.237Z,23.70
2017-08-20T21:30:48.737Z,23.60
2017-08-20T21:33:16.223Z,23.60
2017-08-20T21:35:43.702Z,23.60
2017-08-20T21:38:11.220Z,23.50
2017-08-20T21:40:38.711Z,23.60
2017-08-20T21:43:06.191Z,23.40
2017-08-20T21:45:33.699Z,23.30
2017-08-20T21:48:01.176Z,23.30
2017-08-20T21:50:28.663Z,23.50
2017-08-20T21:52:56.166Z,23.40
2017-08-20T21:55:23.659Z,23.30
2017-08-20T21:57:51.138Z,23.20
2017-08-20T22:00:18.662Z,23.20
2017-08-20T22:02:46.147Z,23.20
2017-08-20T22:05:13.635Z,23.10
2017-08-20T22:07:41.923Z,22.90
2017-08-20T22:10:09.400Z,22.80
2017-08-20T22:12:36.887Z,22.80
2017-08-20T22:15:04.389Z,22.40
2017-08-20T22:17:33.485Z,22.60
2017-08-20T22:20:01.803Z,22.50
2017-08-20T22:22:29.310Z,22.40
2017-08-20T22:24:56.796Z,22.40
2017-08-20T22:27:24.281Z,22.50
2017-08-20T22:29:51.790Z,22.40
2017-08-20T22:32:19.299Z,22.10
2017-08-20T22:34:46.782Z,22.10
2017-08-20T22:37:14.279Z,22.20
2017-08-20T22:39:42.521Z,22.10
2017-08-20T22:42:10.005Z,22.00
2017-08-20T22:44:37.501Z,22.50
2017-08-20T22:47:04.995Z,22.20
2017-08-20T22:49:32.483Z,22.10
2017-08-20T22:51:59.986Z,21.90
2017-08-20T22:54:27.493Z,22.00
2017-08-20T22:56:54.974Z,22.10
2017-08-20T22:59:22.486Z,22.10
2017-08-20T23:01:49.962Z,22.30
2017-08-20T23:04:17.442Z,22.50
2017-08-20T23:06:45.713Z,22.50
2017-08-20T23:09:13.963Z,22.40
2017-08-20T23:11:41.446Z,22.40
2017-08-20T23:14:09.717Z,21.90
2017-08-20T23:16:37.207Z,21.90
2017-08-20T23:19:04.685Z,21.70
2017-08-20T23:21:32.188Z,21.90
2017-08-20T23:23:59.666Z,21.80
2017-08-20T23:26:28.167Z,21.80
2017-08-20T23:28:55.679Z,21.70
2017-08-20T23:31:23.184Z,21.80
2017-08-20T23:33:51.424Z,21.80
2017-08-20T23:36:18.926Z,21.70
2017-08-20T23:38:46.412Z,21.80
2017-08-20T23:41:13.891Z,21.80
2017-08-20T23:43:41.403Z,21.80
2017-08-20T23:46:08.882Z,21.80
2017-08-20T23:48:36.357Z,22.00
2017-08-20T23:51:03.849Z,21.90
2017-08-20T23:53:32.107Z,21.90
2017-08-20T23:55:59.595Z,21.90
2017-08-20T23:58:27.878Z,21.60
